Time;durP1;ratioP1;P1;durP2;ratioP2;P2;SDS_P1;SDS_P2;PMS_P1;PMS_P2;Temp;Humidity;BMP_temperature;BMP_pressure;BME280_temperature;BME280_humidity;BME280_pressure;Samples;Min_cycle;Max_cycle;Signal;HPM_P1;HPM_P2
2022/06/27 00:02:01;;;;;;;6.30;1.75;;;21.20;99.90;;;;;;5069207;28;20040;-83
2022/06/27 00:04:26;;;;;;;4.15;1.90;;;21.20;99.90;;;;;;5069948;28;20028;-84
2022/06/27 00:06:52;;;;;;;5.82;1.40;;;21.10;99.90;;;;;;5070559;28;20031;-82
2022/06/27 00:09:18;;;;;;;6.13;1.50;;;21.20;99.90;;;;;;5074884;28;20070;-82
2022/06/27 00:11:44;;;;;;;4.00;1.20;;;21.10;99.90;;;;;;5085584;28;20024;-83
2022/06/27 00:14:10;;;;;;;7.18;1.50;;;21.10;99.90;;;;;;5085747;28;20047;-82
2022/06/27 00:16:35;;;;;;;3.70;1.77;;;21.00;99.90;;;;;;5085606;28;20028;-83
2022/06/27 00:19:01;;;;;;;6.68;1.70;;;21.00;99.90;;;;;;5085738;28;20039;-83
2022/06/27 00:21:27;;;;;;;4.28;1.50;;;21.00;99.90;;;;;;5069976;28;20032;-83
2022/06/27 00:23:52;;;;;;;6.50;1.42;;;21.00;99.90;;;;;;5086914;28;20507;-82
2022/06/27 00:26:18;;;;;;;5.60;1.55;;;20.90;99.90;;;;;;5070585;28;20071;-83
2022/06/27 00:28:44;;;;;;;11.00;3.75;;;20.90;99.90;;;;;;5070039;28;20063;-84
2022/06/27 00:31:09;;;;;;;3.67;1.60;;;20.90;99.90;;;;;;5071275;28;20078;-84
2022/06/27 00:33:35;;;;;;;5.72;1.67;;;20.90;99.90;;;;;;5073691;28;20510;-83
2022/06/27 00:36:00;;;;;;;5.00;1.67;;;20.90;99.90;;;;;;5091494;28;20082;-83
2022/06/27 00:38:26;;;;;;;7.20;1.60;;;20.80;99.90;;;;;;5073549;28;20036;-82
2022/06/27 00:40:52;;;;;;;4.28;2.20;;;20.80;99.90;;;;;;5073650;28;20036;-84
2022/06/27 00:43:18;;;;;;;8.70;1.90;;;20.70;99.90;;;;;;5073705;28;20469;-83
2022/06/27 00:45:43;;;;;;;11.32;2.20;;;20.70;99.90;;;;;;5073478;28;20078;-83
2022/06/27 00:48:09;;;;;;;10.48;1.90;;;20.70;99.90;;;;;;5073198;28;20461;-83
2022/06/27 00:50:35;;;;;;;4.65;1.77;;;20.60;99.90;;;;;;5083767;28;20020;-84
2022/06/27 00:53:01;;;;;;;5.53;1.42;;;20.70;99.90;;;;;;5089634;28;20034;-84
2022/06/27 00:55:27;;;;;;;9.70;2.83;;;20.60;99.90;;;;;;5090219;28;20241;-83
2022/06/27 00:57:53;;;;;;;3.13;1.50;;;20.70;99.90;;;;;;5072427;28;20135;-82
2022/06/27 01:00:19;;;;;;;8.68;2.15;;;20.70;99.90;;;;;;5091298;28;20024;-84
2022/06/27 01:02:44;;;;;;;9.52;2.58;;;20.60;99.90;;;;;;5089457;28;20043;-84
2022/06/27 01:05:13;;;;;;;7.10;2.03;;;20.70;99.90;;;;;;5071834;28;20467;-81
2022/06/27 01:07:40;;;;;;;6.30;1.42;;;20.60;99.90;;;;;;5070929;28;20028;-82
2022/06/27 01:10:07;;;;;;;7.25;1.50;;;20.60;99.90;;;;;;5075437;28;20740;-85
2022/06/27 01:12:33;;;;;;;4.43;1.55;;;20.70;99.90;;;;;;5091122;28;20047;-84
2022/06/27 01:15:00;;;;;;;5.25;1.45;;;20.60;99.90;;;;;;5090209;28;20570;-82
2022/06/27 01:17:26;;;;;;;6.18;1.48;;;20.60;99.90;;;;;;5090689;28;20341;-85
2022/06/27 01:19:52;;;;;;;3.60;1.50;;;20.60;99.90;;;;;;5074040;28;20492;-84
2022/06/27 01:22:19;;;;;;;3.83;1.20;;;20.50;99.90;;;;;;5074265;28;20035;-86
2022/06/27 01:24:45;;;;;;;3.30;1.70;;;20.50;99.90;;;;;;5090292;28;20052;-83
2022/06/27 01:27:11;;;;;;;3.22;1.33;;;20.40;99.90;;;;;;5072864;28;20028;-83
2022/06/27 01:29:37;;;;;;;6.55;1.88;;;20.40;99.90;;;;;;5090596;28;20374;-84
2022/06/27 01:32:04;;;;;;;8.07;1.50;;;20.40;99.90;;;;;;5072980;28;20519;-84
2022/06/27 01:34:30;;;;;;;6.47;1.77;;;20.40;99.90;;;;;;5090736;28;20142;-85
2022/06/27 01:36:55;;;;;;;5.60;1.67;;;20.40;99.90;;;;;;5091115;28;20038;-84
2022/06/27 01:39:24;;;;;;;3.22;1.75;;;20.40;99.90;;;;;;5073696;28;20051;-82
2022/06/27 01:41:56;;;;;;;8.50;1.67;;;20.40;99.90;;;;;;5072932;28;20876;-84
2022/06/27 01:44:24;;;;;;;5.68;1.83;;;20.40;99.90;;;;;;5073314;28;20034;-83
2022/06/27 01:47:05;;;;;;;4.97;1.35;;;20.30;99.90;;;;;;5091313;28;20028;-84
2022/06/27 01:49:33;;;;;;;5.07;2.13;;;20.30;99.90;;;;;;5072946;28;20019;-84
2022/06/27 01:52:01;;;;;;;7.70;1.92;;;20.30;99.90;;;;;;5073315;28;20056;-84
2022/06/27 01:54:27;;;;;;;7.63;1.67;;;20.30;99.90;;;;;;5073435;28;20024;-84
2022/06/27 01:56:53;;;;;;;3.30;1.67;;;20.30;99.90;;;;;;5089987;28;20024;-84
2022/06/27 01:59:25;;;;;;;5.88;1.65;;;20.30;99.90;;;;;;5072953;28;20024;-84
2022/06/27 02:01:51;;;;;;;2.45;1.45;;;20.30;99.90;;;;;;5072458;28;20128;-85
2022/06/27 02:04:17;;;;;;;4.53;1.30;;;20.40;99.90;;;;;;5072439;28;20111;-82
2022/06/27 02:06:45;;;;;;;4.60;1.75;;;20.40;99.90;;;;;;5070037;28;20468;-84
2022/06/27 02:09:13;;;;;;;6.18;1.70;;;20.40;99.90;;;;;;5089214;28;20028;-84
2022/06/27 02:11:41;;;;;;;3.60;1.40;;;20.40;99.90;;;;;;5089219;28;20028;-84
2022/06/27 02:14:06;;;;;;;4.22;1.25;;;20.50;99.90;;;;;;5090418;28;20071;-83
2022/06/27 02:16:32;;;;;;;5.72;1.40;;;20.50;99.90;;;;;;5088844;28;20024;-83
2022/06/27 02:18:58;;;;;;;18.48;1.60;;;20.50;99.90;;;;;;5072033;28;20502;-84
2022/06/27 02:21:26;;;;;;;6.70;1.50;;;20.50;99.90;;;;;;5079442;28;20438;-84
2022/06/27 02:23:53;;;;;;;5.78;1.90;;;20.50;99.90;;;;;;5090878;28;20095;-85
2022/06/27 02:26:25;;;;;;;5.75;1.75;;;20.60;99.90;;;;;;5089310;28;20032;-83
2022/06/27 02:28:53;;;;;;;3.55;1.60;;;20.70;99.90;;;;;;5088368;28;20020;-84
2022/06/27 02:31:19;;;;;;;8.38;1.70;;;20.70;99.90;;;;;;5088808;28;20448;-83
2022/06/27 02:33:46;;;;;;;4.57;1.63;;;20.60;99.90;;;;;;5089986;28;20559;-83
2022/06/27 02:36:30;;;;;;;6.10;1.88;;;20.60;99.90;;;;;;5088992;28;20151;-84
2022/06/27 02:38:57;;;;;;;7.22;1.55;;;20.60;99.90;;;;;;5088775;28;20024;-84
2022/06/27 02:41:32;;;;;;;5.95;1.75;;;20.50;99.90;;;;;;5089932;28;20031;-84
2022/06/27 02:44:18;;;;;;;9.07;1.98;;;20.60;99.90;;;;;;5089204;28;20031;-83
2022/06/27 02:46:45;;;;;;;5.65;2.42;;;20.60;99.90;;;;;;5087387;28;20463;-83
2022/06/27 02:49:12;;;;;;;9.45;2.33;;;20.50;99.90;;;;;;5089987;28;20024;-84
2022/06/27 02:51:47;;;;;;;7.05;1.83;;;20.50;99.90;;;;;;5088221;28;20028;-83
2022/06/27 02:54:20;;;;;;;2.75;1.33;;;20.50;99.90;;;;;;5087808;28;20016;-84
2022/06/27 02:56:51;;;;;;;8.10;1.92;;;20.50;99.90;;;;;;5088635;28;20036;-84
2022/06/27 02:59:21;;;;;;;8.70;1.75;;;20.50;99.90;;;;;;5088268;28;20024;-84
2022/06/27 03:01:49;;;;;;;4.82;2.00;;;20.50;99.90;;;;;;5088193;28;20035;-82
2022/06/27 03:04:15;;;;;;;4.25;1.60;;;20.60;99.90;;;;;;5088575;28;20024;-84
2022/06/27 03:06:42;;;;;;;3.28;1.63;;;20.60;99.90;;;;;;5088927;28;20107;-83
2022/06/27 03:09:07;;;;;;;4.88;2.42;;;20.60;99.90;;;;;;5088382;28;20024;-84
2022/06/27 03:11:33;;;;;;;2.35;1.45;;;20.70;99.90;;;;;;5088131;28;20016;-84
2022/06/27 03:13:59;;;;;;;3.08;1.60;;;20.70;99.90;;;;;;5087767;28;20024;-83
2022/06/27 03:16:25;;;;;;;4.10;1.55;;;20.70;99.90;;;;;;5088242;28;20023;-84
2022/06/27 03:18:51;;;;;;;7.07;1.48;;;20.80;99.90;;;;;;5088695;28;20318;-84
2022/06/27 03:21:18;;;;;;;6.00;1.27;;;20.90;99.90;;;;;;5088925;28;20097;-85
2022/06/27 03:23:48;;;;;;;5.22;1.60;;;20.90;99.90;;;;;;5088805;28;20103;-83
2022/06/27 03:26:15;;;;;;;3.55;1.70;;;20.90;99.90;;;;;;5088430;28;20032;-84
2022/06/27 03:28:41;;;;;;;6.43;1.25;;;20.90;99.90;;;;;;5087862;28;20028;-84
2022/06/27 03:31:07;;;;;;;3.75;1.58;;;21.00;99.90;;;;;;5087639;28;20109;-85
2022/06/27 03:33:33;;;;;;;3.85;1.40;;;21.00;99.90;;;;;;5088844;28;20036;-85
2022/06/27 03:35:59;;;;;;;4.22;1.13;;;21.10;99.90;;;;;;5087325;28;20431;-84
2022/06/27 03:38:25;;;;;;;1.67;1.00;;;21.20;99.90;;;;;;5087622;28;20098;-84
2022/06/27 03:40:50;;;;;;;5.38;1.90;;;21.20;99.90;;;;;;5087829;28;20028;-84
2022/06/27 03:43:16;;;;;;;2.35;1.42;;;21.30;99.90;;;;;;5088108;28;20030;-85
2022/06/27 03:45:41;;;;;;;3.70;1.80;;;21.30;99.90;;;;;;5087643;28;20036;-85
2022/06/27 03:48:08;;;;;;;3.40;1.27;;;21.50;99.90;;;;;;5087726;28;20365;-84
2022/06/27 03:50:35;;;;;;;3.90;2.13;;;21.50;99.90;;;;;;5088183;28;20073;-84
2022/06/27 03:53:01;;;;;;;4.82;1.45;;;21.50;99.90;;;;;;5088058;28;20484;-83
2022/06/27 03:55:27;;;;;;;4.80;1.88;;;21.60;99.90;;;;;;5088019;28;20024;-84
2022/06/27 03:57:55;;;;;;;4.10;1.55;;;21.80;99.90;;;;;;5088652;28;20035;-83
2022/06/27 04:00:23;;;;;;;4.28;1.58;;;21.90;99.90;;;;;;5086690;28;20044;-84
2022/06/27 04:02:49;;;;;;;4.43;1.45;;;21.90;99.90;;;;;;5087328;28;20031;-84
2022/06/27 04:05:15;;;;;;;3.28;1.35;;;22.10;99.90;;;;;;5089701;28;20374;-86
2022/06/27 04:07:41;;;;;;;2.63;0.90;;;22.30;99.90;;;;;;5091342;28;20042;-83
2022/06/27 04:10:08;;;;;;;8.30;1.20;;;22.60;99.90;;;;;;5091384;28;20537;-83
2022/06/27 04:12:34;;;;;;;4.70;1.35;;;22.90;99.90;;;;;;5090963;28;20118;-83
2022/06/27 04:15:00;;;;;;;2.35;1.10;;;23.20;99.90;;;;;;5090807;28;20321;-82
2022/06/27 04:17:25;;;;;;;2.95;1.48;;;23.40;99.90;;;;;;5089029;28;20024;-84
2022/06/27 04:19:51;;;;;;;3.45;1.52;;;23.60;99.90;;;;;;5090926;28;20036;-84
2022/06/27 04:22:17;;;;;;;2.08;1.08;;;23.70;99.90;;;;;;5079101;28;20401;-84
2022/06/27 04:24:43;;;;;;;2.67;1.10;;;23.80;99.90;;;;;;5071219;28;20040;-83
2022/06/27 04:27:09;;;;;;;3.78;1.17;;;23.70;99.90;;;;;;5054179;28;20064;-84
2022/06/27 04:29:35;;;;;;;3.55;1.77;;;23.60;99.90;;;;;;5067054;28;20075;-84
2022/06/27 04:32:00;;;;;;;5.05;1.77;;;23.80;99.90;;;;;;5094346;28;20043;-83
2022/06/27 04:34:27;;;;;;;4.53;1.45;;;23.80;99.90;;;;;;5094068;28;20096;-83
2022/06/27 04:36:53;;;;;;;2.33;1.23;;;24.00;99.90;;;;;;5110742;28;20039;-84
2022/06/27 04:39:20;;;;;;;5.95;1.20;;;24.10;99.90;;;;;;5111239;28;20031;-83
2022/06/27 04:41:49;;;;;;;9.27;1.20;;;24.10;99.90;;;;;;5111141;28;20035;-84
2022/06/27 04:44:14;;;;;;;3.08;0.93;;;24.20;99.90;;;;;;5111131;28;20059;-81
2022/06/27 04:46:41;;;;;;;3.70;1.20;;;24.20;99.90;;;;;;5110846;28;20074;-84
2022/06/27 04:49:08;;;;;;;3.15;1.20;;;24.30;99.90;;;;;;5110980;28;20565;-83
2022/06/27 04:51:34;;;;;;;4.35;1.02;;;24.20;99.90;;;;;;5091215;28;20404;-83
2022/06/27 04:54:00;;;;;;;4.07;1.30;;;24.40;99.90;;;;;;5090687;28;20028;-84
2022/06/27 04:56:26;;;;;;;4.20;1.13;;;24.40;99.90;;;;;;5073451;28;20028;-82
2022/06/27 04:58:52;;;;;;;3.83;1.50;;;24.40;99.90;;;;;;5090285;28;20065;-83
2022/06/27 05:01:18;;;;;;;4.70;1.10;;;24.50;99.90;;;;;;5091588;28;20102;-83
2022/06/27 05:03:44;;;;;;;3.90;0.90;;;24.60;99.70;;;;;;5090969;28;20020;-84
2022/06/27 05:06:09;;;;;;;7.53;1.20;;;24.60;99.80;;;;;;5091228;28;20028;-84
2022/06/27 05:08:37;;;;;;;2.60;1.00;;;24.60;99.50;;;;;;5090380;28;20021;-84
2022/06/27 05:11:03;;;;;;;4.82;1.00;;;24.70;99.30;;;;;;5090133;28;20081;-85
2022/06/27 05:13:29;;;;;;;3.60;1.65;;;24.90;98.90;;;;;;5077576;28;20016;-84
2022/06/27 05:15:55;;;;;;;2.55;1.23;;;25.00;98.70;;;;;;5089811;28;20039;-84
2022/06/27 05:18:21;;;;;;;4.53;1.20;;;25.10;98.30;;;;;;5090181;28;20016;-84
2022/06/27 05:20:47;;;;;;;4.20;1.30;;;25.30;98.00;;;;;;5091404;28;20038;-84
2022/06/27 05:23:13;;;;;;;4.28;1.42;;;25.40;97.80;;;;;;5091664;28;20054;-85
2022/06/27 05:25:41;;;;;;;3.92;1.35;;;25.50;97.30;;;;;;5090728;28;20031;-84
2022/06/27 05:28:07;;;;;;;2.20;1.10;;;25.60;97.40;;;;;;5090322;28;20122;-85
2022/06/27 05:30:33;;;;;;;1.63;1.00;;;25.70;96.70;;;;;;5089955;28;20032;-85
2022/06/27 05:32:59;;;;;;;3.92;1.08;;;25.70;96.40;;;;;;5089983;28;20550;-84
2022/06/27 05:35:26;;;;;;;7.32;1.42;;;25.70;96.50;;;;;;5090395;28;20040;-83
2022/06/27 05:37:54;;;;;;;2.72;0.93;;;25.70;96.50;;;;;;5089548;28;20107;-84
2022/06/27 05:40:20;;;;;;;3.53;0.95;;;25.80;96.00;;;;;;5090087;28;20039;-84
2022/06/27 05:42:47;;;;;;;2.20;1.00;;;26.00;95.60;;;;;;5089146;28;20059;-84
2022/06/27 05:45:14;;;;;;;2.75;1.00;;;26.10;95.50;;;;;;5090797;28;20443;-83
2022/06/27 05:47:40;;;;;;;3.30;0.95;;;26.40;94.40;;;;;;5089586;28;20021;-83
2022/06/27 05:50:07;;;;;;;4.18;1.00;;;26.80;93.40;;;;;;5068599;28;20020;-84
2022/06/27 05:52:34;;;;;;;6.07;1.00;;;26.90;92.50;;;;;;5069120;28;20067;-84
2022/06/27 05:55:00;;;;;;;2.80;1.13;;;27.20;91.80;;;;;;5052616;28;20025;-84
2022/06/27 05:57:27;;;;;;;3.08;1.27;;;27.70;91.50;;;;;;5064875;28;20026;-84
2022/06/27 05:59:55;;;;;;;3.78;1.23;;;28.80;87.30;;;;;;5109410;28;20066;-85
2022/06/27 06:02:22;;;;;;;4.18;1.27;;;30.00;82.50;;;;;;5109461;28;20040;-84
2022/06/27 06:04:48;;;;;;;6.45;1.00;;;31.40;75.40;;;;;;5109117;28;20024;-84
2022/06/27 06:07:14;;;;;;;2.25;1.05;;;32.70;68.60;;;;;;5108896;28;20139;-85
2022/06/27 06:09:41;;;;;;;4.40;1.10;;;33.80;61.20;;;;;;5108499;28;20807;-85
2022/06/27 06:12:09;;;;;;;5.22;2.55;;;34.60;55.40;;;;;;5108888;28;20118;-85
2022/06/27 06:14:36;;;;;;;4.55;1.13;;;34.80;53.20;;;;;;5107826;28;20031;-84
2022/06/27 06:17:02;;;;;;;3.90;0.82;;;35.40;50.70;;;;;;5107829;28;20029;-84
2022/06/27 06:19:28;;;;;;;2.00;1.00;;;35.10;49.50;;;;;;5108303;28;20034;-84
2022/06/27 06:21:54;;;;;;;1.70;1.08;;;35.30;48.60;;;;;;5109678;28;20039;-84
2022/06/27 06:24:20;;;;;;;2.17;0.77;;;35.50;46.90;;;;;;5108235;28;20035;-84
2022/06/27 06:26:46;;;;;;;2.55;0.85;;;35.10;47.10;;;;;;5107625;28;20023;-84
2022/06/27 06:29:12;;;;;;;2.38;0.90;;;35.20;46.50;;;;;;5107132;28;20035;-84
2022/06/27 06:31:43;;;;;;;1.40;1.00;;;35.50;45.70;;;;;;5108340;28;20023;-85
2022/06/27 06:34:10;;;;;;;3.45;1.50;;;35.60;45.20;;;;;;5107711;28;20038;-85
2022/06/27 06:36:37;;;;;;;2.78;0.88;;;35.50;45.90;;;;;;5109330;28;20024;-84
2022/06/27 06:39:03;;;;;;;3.10;1.33;;;35.80;44.80;;;;;;5107826;28;20423;-84
2022/06/27 06:41:29;;;;;;;5.78;1.17;;;36.30;44.50;;;;;;5107157;28;20083;-82
2022/06/27 06:43:54;;;;;;;3.22;1.35;;;36.40;42.80;;;;;;5107225;28;20432;-80
2022/06/27 06:46:20;;;;;;;2.13;0.90;;;36.10;42.20;;;;;;5107436;28;20624;-82
2022/06/27 06:48:46;;;;;;;1.90;0.80;;;35.90;42.70;;;;;;5107579;28;20053;-81
2022/06/27 06:51:15;;;;;;;6.88;0.98;;;36.00;42.40;;;;;;5090463;28;20054;-82
2022/06/27 06:53:41;;;;;;;2.83;1.05;;;35.80;43.40;;;;;;5107517;28;20083;-82
2022/06/27 06:56:07;;;;;;;4.10;1.13;;;35.70;43.40;;;;;;5107663;28;20142;-81
2022/06/27 06:58:34;;;;;;;4.80;1.00;;;35.60;43.00;;;;;;5106764;28;20027;-82
2022/06/27 07:01:01;;;;;;;3.22;1.58;;;36.30;42.20;;;;;;5107081;28;20030;-80
2022/06/27 07:03:28;;;;;;;7.47;1.00;;;36.40;42.10;;;;;;5106998;28;20077;-81
2022/06/27 07:05:54;;;;;;;2.03;1.10;;;36.00;42.90;;;;;;5106401;28;20559;-83
2022/06/27 07:08:21;;;;;;;2.38;1.25;;;36.50;42.40;;;;;;5108535;28;20038;-84
2022/06/27 07:10:47;;;;;;;4.50;1.35;;;36.50;41.90;;;;;;5107716;28;20490;-85
2022/06/27 07:13:13;;;;;;;3.65;1.20;;;36.50;42.30;;;;;;5106599;28;20061;-84
2022/06/27 07:15:39;;;;;;;4.95;1.35;;;36.30;42.10;;;;;;5106381;28;20020;-84
2022/06/27 07:18:05;;;;;;;5.13;1.13;;;36.50;41.80;;;;;;5108432;28;20035;-84
2022/06/27 07:20:32;;;;;;;3.03;1.25;;;36.20;42.40;;;;;;5106956;28;20028;-84
2022/06/27 07:22:58;;;;;;;2.80;1.05;;;36.30;41.80;;;;;;5106176;28;20034;-84
2022/06/27 07:25:25;;;;;;;2.45;1.13;;;36.00;42.60;;;;;;5107053;28;20480;-83
2022/06/27 07:27:51;;;;;;;1.45;0.90;;;35.80;42.40;;;;;;5106246;28;20032;-84
2022/06/27 07:30:19;;;;;;;6.25;0.88;;;35.60;42.10;;;;;;5105966;28;20020;-85
2022/06/27 07:32:45;;;;;;;1.83;1.00;;;35.60;41.90;;;;;;5096512;28;20502;-85
2022/06/27 07:35:13;;;;;;;2.08;1.08;;;35.70;41.80;;;;;;5114996;28;20043;-83
2022/06/27 07:37:45;;;;;;;4.18;0.90;;;36.10;41.90;;;;;;5111219;28;20488;-83
2022/06/27 07:40:12;;;;;;;2.33;0.80;;;35.90;40.90;;;;;;5108722;28;20031;-85
2022/06/27 07:42:38;;;;;;;1.83;0.80;;;36.00;41.30;;;;;;5107933;28;20035;-85
2022/06/27 07:45:05;;;;;;;2.53;1.20;;;35.90;41.00;;;;;;5106555;28;20031;-84
2022/06/27 07:47:31;;;;;;;1.83;0.75;;;35.80;41.30;;;;;;5108317;28;20118;-85
2022/06/27 07:49:57;;;;;;;1.92;0.98;;;35.90;40.40;;;;;;5106734;28;20384;-84
2022/06/27 07:52:23;;;;;;;5.90;1.00;;;35.80;41.00;;;;;;5106401;28;20396;-83
2022/06/27 07:54:49;;;;;;;5.13;1.15;;;35.70;40.20;;;;;;5106609;28;20038;-83
2022/06/27 07:57:15;;;;;;;2.17;1.25;;;35.80;40.80;;;;;;5106266;28;20484;-84
2022/06/27 07:59:41;;;;;;;2.75;1.25;;;35.60;40.40;;;;;;5107744;28;20141;-84
2022/06/27 08:02:09;;;;;;;3.25;1.00;;;35.40;41.10;;;;;;5106936;28;20586;-83
2022/06/27 08:04:36;;;;;;;4.45;1.25;;;35.40;42.10;;;;;;5106994;28;20066;-84
2022/06/27 08:07:03;;;;;;;7.57;1.38;;;35.20;42.50;;;;;;5105836;28;20035;-83
2022/06/27 08:09:29;;;;;;;7.97;1.10;;;35.00;42.80;;;;;;5107158;28;20051;-84
2022/06/27 08:11:55;;;;;;;3.08;1.25;;;35.00;42.50;;;;;;5106862;28;20051;-84
2022/06/27 08:14:22;;;;;;;3.30;1.10;;;34.90;42.90;;;;;;5106366;28;20036;-84
2022/06/27 08:16:50;;;;;;;2.55;1.27;;;34.90;43.80;;;;;;5107241;28;20024;-84
2022/06/27 08:19:18;;;;;;;4.93;1.75;;;34.80;43.10;;;;;;5106558;28;20019;-83
2022/06/27 08:21:45;;;;;;;4.75;1.95;;;34.80;43.30;;;;;;5106200;28;20069;-84
2022/06/27 08:24:15;;;;;;;2.65;1.45;;;34.70;43.50;;;;;;5107067;28;20016;-84
2022/06/27 08:26:40;;;;;;;5.10;1.40;;;34.70;43.50;;;;;;5106433;28;20172;-84
2022/06/27 08:29:06;;;;;;;5.93;1.52;;;34.60;43.80;;;;;;5107487;28;20111;-84
2022/06/27 08:31:33;;;;;;;2.40;1.33;;;34.60;43.40;;;;;;5106831;28;20043;-84
2022/06/27 08:34:03;;;;;;;2.88;1.20;;;34.60;43.70;;;;;;5106756;28;20016;-84
2022/06/27 08:36:33;;;;;;;7.55;1.55;;;34.40;44.00;;;;;;5106600;28;20504;-84
2022/06/27 08:38:59;;;;;;;2.72;0.90;;;34.60;42.90;;;;;;5106122;28;20028;-85
2022/06/27 08:41:25;;;;;;;2.85;1.10;;;34.80;44.50;;;;;;5105882;28;20039;-84
2022/06/27 08:43:58;;;;;;;2.80;1.42;;;34.90;43.70;;;;;;5107462;28;20024;-84
2022/06/27 08:46:24;;;;;;;6.97;1.50;;;35.30;43.20;;;;;;5105971;28;20539;-84
2022/06/27 08:48:50;;;;;;;4.28;1.85;;;35.50;43.00;;;;;;5106174;28;20020;-84
2022/06/27 08:51:18;;;;;;;5.68;1.60;;;35.40;41.70;;;;;;5107487;28;20028;-83
2022/06/27 08:53:44;;;;;;;2.60;1.67;;;35.30;42.90;;;;;;5110023;28;20028;-84
2022/06/27 08:56:13;;;;;;;3.70;1.40;;;35.50;43.10;;;;;;5109924;28;20382;-82
2022/06/27 08:58:40;;;;;;;8.75;1.83;;;35.40;42.30;;;;;;5111590;28;20032;-82
2022/06/27 09:01:07;;;;;;;4.63;2.03;;;35.60;41.80;;;;;;5109753;28;20682;-85
2022/06/27 09:03:34;;;;;;;6.15;1.52;;;35.70;41.10;;;;;;5110643;28;20030;-84
2022/06/27 09:06:05;;;;;;;4.75;1.60;;;35.30;42.40;;;;;;5109787;28;20030;-86
2022/06/27 09:08:34;;;;;;;2.72;1.55;;;35.20;41.10;;;;;;5109858;28;20580;-85
2022/06/27 09:11:00;;;;;;;3.97;1.45;;;35.20;42.30;;;;;;5110020;28;20112;-85
2022/06/27 09:13:27;;;;;;;5.95;1.75;;;35.20;43.00;;;;;;5110273;28;20034;-84
2022/06/27 09:15:55;;;;;;;3.90;1.63;;;35.60;42.30;;;;;;5111090;28;20070;-84
2022/06/27 09:18:23;;;;;;;8.13;1.58;;;35.80;41.50;;;;;;5110341;28;20020;-84
2022/06/27 09:21:12;;;;;;;6.93;1.70;;;35.80;41.80;;;;;;5109238;28;20492;-83
2022/06/27 09:24:01;;;;;;;4.75;1.60;;;35.80;41.80;;;;;;5109702;28;20019;-84
2022/06/27 09:26:31;;;;;;;7.10;1.63;;;35.70;43.20;;;;;;5108795;28;20039;-84
2022/06/27 09:29:09;;;;;;;5.55;2.03;;;36.00;41.30;;;;;;5109879;28;20043;-84
2022/06/27 09:31:39;;;;;;;7.32;1.52;;;36.00;40.10;;;;;;5110785;28;20028;-84
2022/06/27 09:34:23;;;;;;;4.78;1.63;;;35.90;39.50;;;;;;5109888;28;20085;-85
2022/06/27 09:36:58;;;;;;;2.90;1.73;;;35.80;40.40;;;;;;5108920;28;20028;-84
2022/06/27 09:39:34;;;;;;;5.40;1.80;;;36.00;40.10;;;;;;5108926;28;20024;-83
2022/06/27 09:42:01;;;;;;;4.32;2.15;;;36.00;40.60;;;;;;5109670;28;20289;-86
2022/06/27 09:44:38;;;;;;;2.10;1.40;;;35.90;40.00;;;;;;5109707;28;20115;-85
2022/06/27 09:47:11;;;;;;;5.78;1.77;;;36.00;39.50;;;;;;5110270;28;20031;-84
2022/06/27 09:49:43;;;;;;;3.22;1.38;;;35.90;40.60;;;;;;5109278;28;20452;-84
2022/06/27 09:52:17;;;;;;;4.70;2.10;;;35.80;40.60;;;;;;5111087;28;20012;-83
2022/06/27 09:54:46;;;;;;;7.95;1.75;;;35.90;39.90;;;;;;5110777;28;20042;-85
2022/06/27 09:57:13;;;;;;;10.48;2.22;;;36.00;40.80;;;;;;5111064;28;20656;-85
2022/06/27 09:59:39;;;;;;;4.93;1.80;;;36.20;41.10;;;;;;5109271;28;20037;-84
2022/06/27 10:02:06;;;;;;;3.63;1.70;;;36.00;40.90;;;;;;5093069;28;20061;-85
2022/06/27 10:04:34;;;;;;;6.70;1.70;;;35.70;40.30;;;;;;5110303;28;20097;-86
2022/06/27 10:07:02;;;;;;;6.00;1.75;;;35.60;40.70;;;;;;5109446;28;20442;-84
2022/06/27 10:09:29;;;;;;;14.98;2.30;;;35.00;40.20;;;;;;5110385;28;20403;-85
2022/06/27 10:12:22;;;;;;;8.02;1.98;;;34.50;40.70;;;;;;5109380;28;20031;-84
2022/06/27 10:15:10;;;;;;;5.45;1.88;;;33.70;41.80;;;;;;5082807;28;20039;-85
2022/06/27 10:17:38;;;;;;;4.22;2.00;;;33.30;44.30;;;;;;5089545;28;20101;-84
2022/06/27 10:20:12;;;;;;;7.53;1.88;;;33.30;42.50;;;;;;5089815;28;20392;-84
2022/06/27 10:22:39;;;;;;;2.65;1.58;;;33.10;43.00;;;;;;5089912;28;20040;-84
2022/06/27 10:25:26;;;;;;;4.03;1.88;;;33.00;44.20;;;;;;5072598;28;20032;-84
2022/06/27 10:28:10;;;;;;;13.35;1.55;;;32.90;44.70;;;;;;5091364;28;20039;-85
2022/06/27 10:30:51;;;;;;;4.90;1.77;;;32.70;44.70;;;;;;5072456;28;20030;-85
2022/06/27 10:33:23;;;;;;;7.30;1.60;;;32.60;45.60;;;;;;5086143;28;20082;-85
2022/06/27 10:38:23;;;;;;;5.82;1.23;;;32.90;45.90;;;;;;5071626;28;20032;-86
2022/06/27 10:40:50;;;;;;;4.82;1.50;;;33.10;45.40;;;;;;5068748;28;20063;-86
2022/06/27 10:43:45;;;;;;;10.95;2.15;;;33.10;44.20;;;;;;5053155;28;20635;-85
2022/06/27 10:46:11;;;;;;;3.70;1.80;;;32.90;44.20;;;;;;5053105;28;20021;-86
2022/06/27 10:48:45;;;;;;;4.63;1.58;;;33.00;44.70;;;;;;5053188;28;20024;-85
2022/06/27 10:51:24;;;;;;;4.37;1.70;;;32.90;44.50;;;;;;5070219;28;20020;-86
2022/06/27 10:53:51;;;;;;;4.10;1.75;;;32.80;45.00;;;;;;5069730;28;20303;-86
2022/06/27 10:56:53;;;;;;;4.45;1.58;;;32.60;44.90;;;;;;5052653;28;20020;-86
2022/06/27 10:59:18;;;;;;;5.45;1.77;;;32.50;45.50;;;;;;5052929;28;20493;-87
2022/06/27 11:01:50;;;;;;;2.38;1.67;;;32.10;44.40;;;;;;5053384;28;20037;-88
2022/06/27 11:04:26;;;;;;;10.15;1.55;;;32.00;46.30;;;;;;5052769;28;20079;-87
2022/06/27 11:06:57;;;;;;;5.03;1.83;;;32.20;45.60;;;;;;5052075;28;20037;-87
2022/06/27 11:09:45;;;;;;;6.65;1.70;;;32.40;44.80;;;;;;5052770;28;20032;-87
2022/06/27 11:12:13;;;;;;;4.30;1.30;;;32.50;45.10;;;;;;5052528;28;20115;-88
2022/06/27 11:14:52;;;;;;;3.85;1.70;;;32.60;44.70;;;;;;5069317;28;20508;-85
2022/06/27 11:17:31;;;;;;;6.45;1.50;;;32.70;45.00;;;;;;5067293;28;20420;-87
2022/06/27 11:20:24;;;;;;;4.10;1.60;;;32.80;44.80;;;;;;5069185;28;20020;-85
2022/06/27 11:22:56;;;;;;;4.85;1.40;;;32.60;43.30;;;;;;5072422;28;20042;-87
2022/06/27 11:25:23;;;;;;;12.82;1.98;;;32.40;44.90;;;;;;5072576;28;20074;-88
2022/06/27 11:27:54;;;;;;;4.00;1.33;;;32.40;44.30;;;;;;5072399;28;20028;-87
2022/06/27 11:33:15;;;;;;;4.60;2.10;;;32.70;44.40;;;;;;5090514;28;20344;-87
2022/06/27 11:35:41;;;;;;;5.47;2.00;;;32.80;45.00;;;;;;5088039;28;20051;-87
2022/06/27 11:38:08;;;;;;;4.97;1.38;;;33.00;43.60;;;;;;5097098;28;20020;-86
2022/06/27 11:40:34;;;;;;;3.55;1.38;;;32.80;43.50;;;;;;5090186;28;20078;-88
2022/06/27 11:43:00;;;;;;;6.25;1.50;;;32.60;44.00;;;;;;5089302;28;20051;-85
2022/06/27 11:45:25;;;;;;;8.80;2.40;;;32.50;45.50;;;;;;5088560;28;20035;-85
2022/06/27 11:47:51;;;;;;;6.65;1.92;;;32.60;44.30;;;;;;5089008;28;20031;-86
2022/06/27 11:50:19;;;;;;;3.50;1.30;;;32.50;43.60;;;;;;5088680;28;20022;-87
2022/06/27 11:52:50;;;;;;;7.55;1.52;;;32.50;44.70;;;;;;5089276;28;20023;-86
2022/06/27 11:55:18;;;;;;;2.63;1.73;;;32.60;43.50;;;;;;5089637;28;20020;-87
2022/06/27 11:57:58;;;;;;;7.10;1.40;;;32.50;43.80;;;;;;5080777;28;20039;-87
2022/06/27 12:00:26;;;;;;;6.85;1.42;;;32.30;43.90;;;;;;5070309;28;20025;-87
2022/06/27 12:03:07;;;;;;;6.35;1.63;;;32.30;44.00;;;;;;5051667;28;20054;-88
2022/06/27 12:05:34;;;;;;;2.58;1.73;;;32.30;44.00;;;;;;5058830;28;20024;-87
2022/06/27 12:08:11;;;;;;;18.05;2.13;;;32.30;44.10;;;;;;5089740;28;20060;-87
2022/06/27 12:10:40;;;;;;;5.25;1.60;;;32.40;44.40;;;;;;5089462;28;20032;-87
2022/06/27 12:13:12;;;;;;;8.02;1.35;;;32.60;44.20;;;;;;5071934;28;20024;-88
2022/06/27 12:15:40;;;;;;;8.20;1.30;;;32.60;44.80;;;;;;5089276;28;20033;-86
2022/06/27 12:18:06;;;;;;;1.40;0.82;;;32.70;44.80;;;;;;5089600;28;20059;-87
2022/06/27 12:20:34;;;;;;;3.70;1.50;;;32.80;43.90;;;;;;5088929;28;20185;-87
2022/06/27 12:23:00;;;;;;;8.05;1.27;;;32.90;43.70;;;;;;5087531;28;20093;-88
2022/06/27 12:25:26;;;;;;;5.95;1.40;;;32.80;43.80;;;;;;5086769;28;20111;-87
2022/06/27 12:27:53;;;;;;;6.22;1.40;;;32.80;43.10;;;;;;5075184;28;20036;-87
2022/06/27 12:30:19;;;;;;;5.10;1.55;;;32.70;44.50;;;;;;5106728;28;20249;-87
2022/06/27 12:32:45;;;;;;;5.47;1.55;;;32.80;43.70;;;;;;5114566;28;20024;-87
2022/06/27 12:35:12;;;;;;;6.07;2.17;;;32.90;42.60;;;;;;5114386;28;20047;-87
2022/06/27 12:37:38;;;;;;;3.05;1.20;;;32.90;43.00;;;;;;5112915;28;20390;-87
2022/06/27 12:40:05;;;;;;;5.15;1.60;;;32.70;41.50;;;;;;5113228;28;20492;-87
2022/06/27 12:42:31;;;;;;;6.97;1.70;;;32.60;42.90;;;;;;5112937;28;20556;-87
2022/06/27 12:44:57;;;;;;;8.20;1.48;;;32.60;42.60;;;;;;5111390;28;20110;-85
2022/06/27 12:47:23;;;;;;;6.30;1.40;;;32.50;41.80;;;;;;5112952;28;20059;-86
2022/06/27 12:49:49;;;;;;;3.10;1.85;;;32.50;42.50;;;;;;5112051;28;20369;-87
2022/06/27 12:52:16;;;;;;;2.72;1.30;;;32.40;42.10;;;;;;5113481;28;20030;-88
2022/06/27 12:54:43;;;;;;;1.77;1.13;;;32.40;43.20;;;;;;5112355;28;20269;-87
2022/06/27 12:57:13;;;;;;;5.85;1.33;;;32.50;43.80;;;;;;5113191;28;20574;-88